Challenge des Allures Libres de Gaume

Le Jogging Du Tennis De Table - Virton (10.30 km)

dimanche 06 octobre 2019

Le classement original se trouve sur : http://www.acdampicourt.be
CHALLENGE DES ALLURES LIBRES DE GAUME
LE JOGGING DU TENNIS DE TABLE - VIRTON
DISTANCE : 10.30 km
dimanche 06 octobre 2019
 
Place dos NOM Cat. Pl/Cat. temps temps/km Vitesse
01:00:00              
1 801 ABAKER Yasse Mohammed Abaker S 1 00:38:29 03:44 16.06
2 2652 DIDIER William V2 1 00:38:34 03:45 16.02
3 676 VAN DER OUDERAA François S 2 00:39:08 03:48 15.79
4 2650 CLÉMENT François V1 1 00:39:35 03:51 15.61
5 232 CONROTTE Florent S 3 00:39:58 03:53 15.46
6 289 FRANÇOIS Aurélien S 4 00:40:31 03:56 15.25
7 803 FISHA ARAYA Tesfahiwet S 5 00:40:57 03:59 15.09
8 2649 SCHENINI Nicolas S 6 00:41:08 04:00 15.02
9 286 PAQUET Raphaël V1 2 00:41:27 04:01 14.91
10 530 HENROTTE Sébastien V1 3 00:41:29 04:02 14.90
11 130 BREVERY Jérémy S 7 00:41:35 04:02 14.86
12 56 PIERRET Serge V2 2 00:41:36 04:02 14.86
13 755 VIRLEZ Geoffrey S 8 00:42:16 04:06 14.62
14 673 RATY Sylvain V1 4 00:42:30 04:08 14.54
15 675 EISCHEN Alexandre S 9 00:42:37 04:08 14.50
16 2146 EILON Oren V1 5 00:43:47 04:15 14.11
17 2606 DA FONSECA Marco V2 3 00:43:52 04:16 14.09
18 284 KIM Eric V2 4 00:43:55 04:16 14.07
19 1075 PRAPUOLENIS David V2 5 00:44:08 04:17 14.00
20 276 BASQUIN Franck V1 6 00:44:15 04:18 13.97
21 489 BOUCHET Davy S 10 00:44:38 04:20 13.85
22 2621 HUBERTY Philippe V2 6 00:44:48 04:21 13.79
23 95 HUBERT Guillaume S 11 00:44:49 04:21 13.79
24 2651 LOUPPE Stéphanie A2 1 00:44:52 04:21 13.77
25 151 MILLARD Yannick V1 7 00:44:56 04:22 13.75
26 1146 DUMONT Jonathan S 12 00:45:08 04:23 13.69
27 2656 HENRARD Philippe S 13 00:45:18 04:24 13.64
28 1201 DEQUENNE Eric V2 7 00:45:19 04:24 13.64
29 520 AUTPHENNE Michaël V1 8 00:45:32 04:25 13.57
30 769 WAHL Olivier V2 8 00:45:47 04:27 13.50
31 878 COTTIN Raphaël V1 9 00:45:56 04:28 13.45
32 465 PIERRARD Christian V2 9 00:45:57 04:28 13.45
33 546 HENRIOT Benjamin S 14 00:46:16 04:30 13.36
34 196 NOEL Gilles V1 10 00:46:19 04:30 13.34
35 2622 THIELE Marcel S 15 00:46:40 04:32 13.24
36 66 IN Jean-Marie V2 10 00:47:08 04:35 13.11
37 316 PECHON Amélien S 16 00:47:27 04:36 13.02
38 742 BAUWIN Géraldine A1 1 00:47:30 04:37 13.01
39 247 PRONCE Nicolas S 17 00:47:34 04:37 12.99
40 602 DEWEZ Didier V1 11 00:47:52 04:39 12.91
41 1977 JACOB Sylvain V1 12 00:47:58 04:39 12.88
42 2648 PERIDONT Julien JH 1 00:48:22 04:42 12.78
43 366 MOGIN Margot F 1 00:48:31 04:43 12.74
44 2618 BAUDSON Nicolas S 18 00:48:33 04:43 12.73
45 694 DELAFONTAINE Simon S 19 00:48:34 04:43 12.72
46 409 REISCH Mathias V3 1 00:48:40 04:43 12.70
47 2658 BOUYER Anthony V1 13 00:48:42 04:44 12.69
48 140 DEBECKER Guy V3 2 00:48:50 04:44 12.66
49 87 MAISSIN Bruno V1 14 00:48:52 04:45 12.65
50 176 MAURY Fanny F 2 00:48:56 04:45 12.63
51 545 BLOMMAERT Christine A2 2 00:48:59 04:45 12.62
52 557 DESQUILBET Maximilien S 20 00:49:07 04:46 12.58
53 2114 LAUMONT Morgan S 21 00:49:25 04:48 12.51
54 527 BEARZATTO Melissa F 3 00:49:29 04:48 12.49
55 579 WAEYTENS Michel V3 3 00:49:39 04:49 12.45
56 100 DEGAND Eric V2 11 00:49:45 04:50 12.42
57 152 RICHARD Fabrice V2 12 00:49:48 04:50 12.41
58 2647 PERIDONT Frédéric V1 15 00:49:50 04:50 12.40
59 538 DENIS Michel V2 13 00:49:56 04:51 12.38
60 823 THERER Vincent V1 16 00:49:58 04:51 12.37
61 264 BALON José V3 4 00:50:00 04:51 12.36
62 466 HUDELOT Eric V2 14 00:50:05 04:52 12.34
63 31 GRANDIDIER Jacques V2 15 00:50:10 04:52 12.32
64 1192 SCAILLET Séverine A1 2 00:50:11 04:52 12.31
65 73 MOLTER Roland V1 17 00:50:15 04:53 12.30
66 2285 PICARD Serge V1 18 00:50:16 04:53 12.29
67 254 LAMESCH Laurent V1 19 00:50:34 04:55 12.22
68 393 BARBERON Guillaume S 22 00:50:41 04:55 12.19
69 903 GALLAIRE Sylvie A2 3 00:50:44 04:56 12.18
70 1085 DUCHENE Patrick V2 16 00:50:45 04:56 12.18
71 255 HERMAN Eric S 23 00:51:04 04:57 12.10
72 900 GARNIER Laurent V1 20 00:51:09 04:58 12.08
73 995 DA PALMA Antonio V2 17 00:51:26 05:00 12.02
74 1124 ANIZET Sébastien S 24 00:51:32 05:00 11.99
75 300 LHOTTE René V3 5 00:51:35 05:00 11.98
76 564 LÉVEILLÉ Thierry V2 18 00:51:46 05:02 11.94
77 647 MIHRAMANE Samir V1 21 00:51:51 05:02 11.92
78 310 DEPAUE Marc V2 19 00:51:55 05:02 11.90
79 202 THOMAS Dylan S 25 00:52:04 05:03 11.87
80 663 CABRET Christophe V2 20 00:52:06 05:03 11.86
81 139 LAVIGNE Emmanuel V2 21 00:52:10 05:04 11.85
82 2000 BALON Philippe V1 22 00:52:17 05:05 11.82
83 2636 CAPON Clément JH 2 00:52:20 05:05 11.81
84 720 POELS Luk V1 23 00:52:22 05:05 11.80
85 70 BOKSEBELD André V2 22 00:52:28 05:06 11.78
86 326 LEQUEUX Olivier V1 24 00:52:35 05:06 11.75
87 529 MONAVILLE Amalia A1 3 00:52:37 05:07 11.75
88 856 HAYS Vincent V2 23 00:52:45 05:07 11.72
89 319 RICAILLE Vinciane A3 1 00:52:47 05:07 11.71
90 33 FRANÇOIS Serge V3 6 00:52:49 05:08 11.70
91 781 NICOLAS Bernard V2 24 00:52:57 05:08 11.67
92 1441 DENY Véronique A1 4 00:53:02 05:09 11.65
93 2654 PIRSON Olivier V1 25 00:53:18 05:10 11.59
94 822 AMOROSI Adelio V3 7 00:53:31 05:12 11.55
95 1162 MARTIN Gilles S 26 00:53:33 05:12 11.54
96 1141 PEIFFER Nicolas V1 26 00:53:35 05:12 11.53
97 240 VIVANI David V2 25 00:53:41 05:13 11.51
98 1026 JACOB Claudia A2 4 00:53:43 05:13 11.50
99 23 ADAM Jean-Luc V3 8 00:53:44 05:13 11.50
100 364 JACQUET Vincent V1 27 00:53:49 05:13 11.48
101 365 HUTTING Renald V1 28 00:53:50 05:14 11.48
102 172 BROCARD Cyril S 27 00:54:01 05:15 11.44
103 1188 ROLAND Eloïse F 4 00:54:03 05:15 11.43
104 251 HANSEN Raphaël V1 29 00:54:05 05:15 11.43
105 363 COZIER Emmanuel V1 30 00:54:07 05:15 11.42
106 1027 ROLAND Etienne V2 26 00:54:12 05:16 11.40
107 591 RICHARD Antoine S 28 00:54:25 05:17 11.36
108 1242 SIZAIRE Adrien S 29 00:54:28 05:17 11.35
109 777 ROBLAIN Louis V2 27 00:54:30 05:17 11.34
110 773 DION François V1 31 00:54:39 05:18 11.31
111 243 MOHNEN Céline A2 5 00:54:45 05:19 11.29
112 311 SCHANDELER Olivier V1 32 00:54:46 05:19 11.28
113 445 TOUAZI Claude V2 28 00:54:49 05:19 11.27
114 816 OGER Michel V2 29 00:54:53 05:20 11.26
115 513 MARTIN Christophe V1 33 00:54:56 05:20 11.25
116 809 MINGARELLI Pierre V4 1 00:55:04 05:21 11.22
117 1142 DEHAYE Nicolas V1 34 00:55:05 05:21 11.22
118 122 VORILLION Sophie F 5 00:55:08 05:21 11.21
119 1062 WAUTHOZ Vincent V3 9 00:55:11 05:21 11.20
120 1118 COTON Michel V1 35 00:55:16 05:22 11.18
121 2655 THIERY Nathalie A2 6 00:55:17 05:22 11.18
122 242 MERVILLE Vincent V2 30 00:55:20 05:22 11.17
123 1962 DASNOY Freddy V2 31 00:55:29 05:23 11.14
124 1452 BERNARD Katia A1 5 00:55:33 05:24 11.13
125 11 BALON Christophe S 30 00:55:34 05:24 11.12
126 1087 BALTHAZAR Olivier V1 36 00:55:41 05:24 11.10
127 35 MAKA Xavier V2 32 00:55:42 05:24 11.10
128 969 HANCK Charlyne F 6 00:55:45 05:25 11.09
129 1421 ADAM Servane F 7 00:55:51 05:25 11.07
130 2388 HENRION Clémence F 8 00:55:58 05:26 11.04
131 2653 BRIX Axel V1 37 00:56:11 05:27 11.00
132 2657 GRIES Lucas S 31 00:56:16 05:28 10.98
133 19 BRUWIER Clémence F 9 00:56:17 05:28 10.98
134 1001 PEIFFER Laurent V1 38 00:56:22 05:28 10.96
135 362 VALET Paul V2 33 00:56:35 05:30 10.92
136 48 HANCK Fabrice V20 1 00:56:45 05:31 10.89
137 107 AMANTINI Francis V3 10 00:56:49 05:31 10.88
138 173 FLEMING David V1 39 00:56:53 05:31 10.86
139 421 MARTIN Jean-Louis V1 40 00:57:08 05:33 10.82
140 550 LOSCHETTER Guy V2 34 00:57:10 05:33 10.81
141 544 HANZIR Aurélien S 32 00:57:11 05:33 10.81
142 543 GISCHER Erika F 10 00:57:14 05:33 10.80
143 184 LEFEVRE Olivier V2 35 00:57:15 05:33 10.79
144 408 DEPREYTERE Nathan S 33 00:57:24 05:34 10.77
145 483 BOMBAERS Murielle A3 2 00:57:30 05:35 10.75
146 423 BEVER Frédéric V2 36 00:57:43 05:36 10.71
147 1378 UYTTERSPROT Mélia F 11 00:57:54 05:37 10.67
148 190 SIMON Frédéric V1 41 00:57:55 05:37 10.67
149 162 SCHOCKERT Georges V2 37 00:57:59 05:38 10.66
150 39 NIHANT Myriam A3 3 00:58:06 05:38 10.64
151 2511 SCHELFHAUT Sylvie A1 6 00:58:13 05:39 10.62
152 434 DURLET Geneviève A3 4 00:58:17 05:40 10.60
153 2659 HERMAN Justine F 12 00:58:22 05:40 10.59
154 177 DEGLAIRE Carine A1 7 00:58:24 05:40 10.58
155 2143 STOZ Sophie A1 8 00:58:26 05:40 10.58
156 652 DIDIER Pascale A2 7 00:58:34 05:41 10.55
157 7 MATHIAS Laurent V1 42 00:58:35 05:41 10.55
158 187 PIQUARD Marie-France A2 8 00:58:42 05:42 10.53
159 2379 THIEL Julien S 34 00:59:09 05:45 10.45
160 2265 GONRY Patrick V1 43 00:59:22 05:46 10.41
161 304 MARCHAND Anne-Françoise A3 5 00:59:24 05:46 10.40
162 1442 MULLENDERS Mélanie F 13 00:59:40 05:48 10.36
163 416 EILON Hadas A1 9 00:59:42 05:48 10.35
164 250 MATON Jean-Luc V2 38 01:00:00 05:50 10.30
165 2240 MULLENDERS Thomas S 35 01:00:06 05:50 10.28
166 567 PECHON Corentin S 36 01:00:13 05:51 10.26
167 688 D'AGOSTINO Avrile F 14 01:00:31 05:53 10.21
168 2013 GONRY Frédéric V1 44 01:00:33 05:53 10.21
169 236 LAFONTAINE Dimitri V1 45 01:00:42 05:54 10.18
170 278 GOFFLOT Régine A2 9 01:01:13 05:57 10.10
171 2391 RESIBOIS Dominique V2 39 01:01:16 05:57 10.09
172 175 FARINELLE Luc V2 40 01:01:17 05:57 10.08
173 97 THONNARD Sébastien S 37 01:01:30 05:58 10.05
174 2572 MIHRAMANE Ilias JH 3 01:01:41 05:59 10.02
175 224 JACQUET Gilles V1 46 01:01:50 06:00 9.99
176 53 OLIVIER André V3 11 01:02:10 06:02 9.94
177 661 BRANCALEONI Patrick V3 12 01:02:13 06:02 9.93
178 778 THIRY Eric V2 41 01:02:16 06:03 9.93
179 314 PERIN Jean-Louis V3 13 01:02:18 06:03 9.92
180 985 MEYER Aline A1 10 01:02:46 06:06 9.85
181 986 GRIES Johan V1 47 01:02:47 06:06 9.84
182 116 PONCIN Gaël S 38 01:02:48 06:06 9.84
183 65 BACQ Isabelle A2 10 01:03:05 06:07 9.80
184 258 WATLET Charlotte F 15 01:03:22 06:09 9.75
185 259 MULLENDERS Samuel S 39 01:03:23 06:09 9.75
186 156 MERTENS Luc V2 42 01:03:24 06:09 9.75
187 93 WATILLON Mélanie A1 11 01:03:40 06:11 9.71
188 293 GOFFINET Pascal V2 43 01:03:51 06:12 9.68
189 2646 GRAISSE Martine A2 11 01:04:05 06:13 9.64
190 590 WALTZING Sara F 16 01:04:06 06:13 9.64
191 1515 DESTENAY Nancy A1 12 01:04:07 06:13 9.64
192 1389 MARTIN Irène A1 13 01:04:10 06:14 9.63
193 622 PIERRET Thierry V2 44 01:04:42 06:17 9.55
194 2358 DEMORTIER Anne-Lise F 17 01:04:55 06:18 9.52
195 324 BECKER Didier V3 14 01:04:57 06:18 9.52
196 462 CROCHET Chantal A3 6 01:05:18 06:20 9.46
197 2132 COLLARD Claudy V3 15 01:05:52 06:24 9.38
198 2588 LECHIEN Sandrina A2 12 01:05:56 06:24 9.37
199 2595 MICHEL Anne A2 13 01:05:57 06:24 9.37
200 1223 ARNOULD Jean-Philippe V2 45 01:06:21 06:27 9.31
201 463 LUGEN Noella A3 7 01:06:28 06:27 9.30
202 603 REMY Kevin S 40 01:07:03 06:31 9.22
203 1247 DARDAR Laura F 18 01:07:17 06:32 9.19
204 295 DARDAR Stéphanie A2 14 01:07:18 06:32 9.18
205 195 BERCK Bruno V1 48 01:08:12 06:37 9.06
206 715 URZI Franscesco V4 2 01:08:57 06:42 8.96
207 627 MAGLIULO Marcello V2 46 01:08:59 06:42 8.96
208 58 GILSON Raymond V3 16 01:09:00 06:42 8.96
209 526 JUBAULT Yves V3 17 01:09:00 06:42 8.96
210 455 RENARD Georges V3 18 01:09:00 06:42 8.96
211 565 DEBATY Alain V2 47 01:09:02 06:42 8.95
212 426 DARAND Lara F 19 01:09:04 06:42 8.95
213 74 QUEVY Laurence A2 15 01:10:35 06:51 8.76
214 2317 LEGENDRE Philippe V2 48 01:13:45 07:10 8.38
215 298 CASCIANI Fatima A2 16 01:15:25 07:19 8.19
216 666 BOUSCHET Marc V3 19 01:16:13 07:24 8.11
217 486 WAMPACH Nicole A4 1 01:19:34 07:43 7.77
218 2578 SINEREM Derbei F 20 01:19:34 07:43 7.77
219 424 COLLIGNON Martine A2 17 01:20:00 07:46 7.73
220 717 BILOCQ Emmanuelle A2 18 01:20:00 07:46 7.73
221 219 THOMAS Bernard V2 49 01:20:00 07:46 7.73
222 157 NOEL Chantal A3 8 01:20:00 07:46 7.73
223 45 MARCHAL Yvet V4 3 02:05:00 12:08 4.94
224 2489 MOREAUX Valérie A2 19 02:05:00 12:08 4.94